Time;durP1;ratioP1;P1;durP2;ratioP2;P2;SDS_P1;SDS_P2;PMS_P1;PMS_P2;Temp;Humidity;BMP_temperature;BMP_pressure;BME280_temperature;BME280_humidity;BME280_pressure;Samples;Min_cycle;Max_cycle;Signal;HPM_P1;HPM_P2
2022/11/03 04:01:33;;;;;;;;;;;10.80;99.90;;;;;;5642552;23;19937;-70
2022/11/03 04:04:00;;;;;;;;;;;10.80;99.90;;;;;;4930671;29;20038;-70
2022/11/03 04:06:26;;;;;;;;;;;10.80;99.90;;;;;;4933329;29;19974;-70
2022/11/03 04:08:53;;;;;;;;;;;10.80;99.90;;;;;;4934867;29;19927;-70
2022/11/03 04:22:20;;;;;;;;;;;10.70;99.90;;;;;;4927683;29;19923;-70
2022/11/03 04:24:47;;;;;;;;;;;10.70;99.90;;;;;;4928276;29;19927;-70
2022/11/03 04:27:26;;;;;;;;;;;10.70;99.90;;;;;;4926528;29;19928;-70
2022/11/03 04:29:53;;;;;;;;;;;10.70;99.90;;;;;;4924707;29;19927;-70
2022/11/03 04:32:22;;;;;;;;;;;10.60;99.90;;;;;;4929632;29;19927;-69
2022/11/03 04:34:49;;;;;;;;;;;10.70;99.90;;;;;;4934154;29;20071;-70
2022/11/03 04:37:15;;;;;;;;;;;10.70;99.90;;;;;;4928137;29;19931;-70
2022/11/03 04:39:42;;;;;;;;;;;10.70;99.90;;;;;;4925239;29;19983;-70
2022/11/03 04:42:15;;;;;;;;;;;10.70;99.90;;;;;;4933964;29;20402;-70
2022/11/03 04:44:41;;;;;;;;;;;10.70;99.90;;;;;;4934252;29;19934;-70
2022/11/03 04:47:09;;;;;;;;;;;10.70;99.90;;;;;;4930894;29;19986;-70
2022/11/03 04:49:38;;;;;;;;;;;10.70;99.90;;;;;;4929605;29;20368;-70
2022/11/03 04:52:06;;;;;;;;;;;10.70;99.90;;;;;;4927675;29;20394;-70
2022/11/03 04:54:32;;;;;;;;;;;10.70;99.90;;;;;;4927586;29;19934;-71
2022/11/03 04:56:59;;;;;;;;;;;10.70;99.90;;;;;;4930614;29;20310;-70
2022/11/03 04:59:26;;;;;;;;;;;10.70;99.90;;;;;;4931609;29;19934;-70
2022/11/03 05:01:53;;;;;;;;;;;10.70;99.90;;;;;;4932478;29;19927;-69
2022/11/03 05:04:20;;;;;;;;;;;10.70;99.90;;;;;;4926602;29;19931;-70
2022/11/03 05:06:50;;;;;;;;;;;10.70;99.90;;;;;;4925578;29;19927;-70
2022/11/03 05:09:20;;;;;;;;;;;10.80;99.90;;;;;;4933889;29;19977;-70
2022/11/03 05:11:47;;;;;;;;;;;10.80;99.90;;;;;;4927059;29;19933;-70
2022/11/03 05:14:15;;;;;;;;;;;10.80;99.90;;;;;;4933866;29;19926;-69
2022/11/03 05:16:42;;;;;;;;;;;10.80;99.90;;;;;;4926174;29;19927;-69
2022/11/03 05:19:12;;;;;;;;;;;10.80;99.90;;;;;;4926729;29;19939;-70
2022/11/03 05:21:39;;;;;;;;;;;10.80;99.90;;;;;;4929685;29;19938;-70
2022/11/03 05:24:11;;;;;;;;;;;10.70;99.90;;;;;;4931883;29;19934;-70
2022/11/03 05:26:38;;;;;;;;;;;10.70;99.90;;;;;;4919788;29;19931;-70
2022/11/03 05:29:10;;;;;;;;;;;10.70;99.90;;;;;;4923824;29;20025;-70
2022/11/03 05:31:40;;;;;;;;;;;10.70;99.90;;;;;;4926442;29;19930;-70
2022/11/03 05:34:21;;;;;;;;;;;10.60;99.90;;;;;;4934552;29;19927;-70
2022/11/03 05:36:48;;;;;;;;;;;10.60;99.90;;;;;;4924406;29;19927;-69
2022/11/03 05:39:29;;;;;;;;;;;10.60;99.90;;;;;;4920817;29;19935;-69
2022/11/03 05:41:56;;;;;;;;;;;10.60;99.90;;;;;;4914890;29;19934;-70
2022/11/03 05:44:25;;;;;;;;;;;10.60;99.90;;;;;;4929683;29;19934;-70
2022/11/03 05:46:52;;;;;;;;;;;10.60;99.90;;;;;;4924352;29;19926;-70
2022/11/03 05:49:20;;;;;;;;;;;10.50;99.90;;;;;;4922924;29;20140;-70
2022/11/03 05:51:47;;;;;;;;;;;10.60;99.90;;;;;;4929167;29;19978;-69
2022/11/03 05:54:19;;;;;;;;;;;10.60;99.90;;;;;;4929525;29;19958;-70
2022/11/03 05:56:47;;;;;;;;;;;10.60;99.90;;;;;;4931437;29;19927;-69
2022/11/03 05:59:17;;;;;;;;;;;10.70;99.90;;;;;;4907051;29;19927;-70
2022/11/03 06:01:44;;;;;;;;;;;10.70;99.90;;;;;;4923205;29;19927;-69
2022/11/03 06:04:15;;;;;;;;;;;10.70;99.90;;;;;;4915756;29;20394;-70
2022/11/03 06:06:42;;;;;;;;;;;10.80;99.90;;;;;;4915462;29;19935;-70
2022/11/03 06:09:12;;;;;;;;;;;10.90;99.90;;;;;;4916872;29;19942;-70
2022/11/03 06:11:39;;;;;;;;;;;10.90;99.90;;;;;;4917141;29;19931;-70
2022/11/03 06:14:13;;;;;;;;;;;11.00;99.90;;;;;;4914867;29;19927;-71
2022/11/03 06:16:41;;;;;;;;;;;11.00;99.90;;;;;;4916308;29;19931;-70
2022/11/03 06:19:26;;;;;;;;;;;11.10;99.90;;;;;;4914410;29;19931;-71
2022/11/03 06:21:54;;;;;;;;;;;11.10;99.90;;;;;;4915595;29;19931;-70
2022/11/03 06:24:23;;;;;;;;;;;11.20;99.90;;;;;;4911150;29;19927;-70
2022/11/03 06:26:50;;;;;;;;;;;11.20;99.90;;;;;;4923709;29;20464;-70
2022/11/03 06:29:19;;;;;;;;;;;11.10;99.90;;;;;;4928510;29;19926;-70
2022/11/03 06:31:47;;;;;;;;;;;11.20;99.90;;;;;;4929210;29;20424;-70
2022/11/03 06:34:20;;;;;;;;;;;11.10;99.90;;;;;;4925330;29;19927;-70
2022/11/03 06:36:47;;;;;;;;;;;11.10;99.90;;;;;;4917943;29;19927;-69
2022/11/03 06:39:18;;;;;;;;;;;11.10;99.90;;;;;;4927361;29;19927;-70
2022/11/03 06:41:44;;;;;;;;;;;11.10;99.90;;;;;;4924505;29;19986;-70
2022/11/03 06:44:19;;;;;;;;;;;11.10;99.90;;;;;;4929893;29;19931;-70
2022/11/03 06:46:47;;;;;;;;;;;11.10;99.90;;;;;;4911089;29;19927;-70
2022/11/03 06:49:35;;;;;;;;;;;11.20;99.90;;;;;;4921200;29;20331;-70
2022/11/03 06:52:02;;;;;;;;;;;11.20;99.90;;;;;;4920257;29;19935;-72
2022/11/03 06:54:29;;;;;;;;;;;11.20;99.90;;;;;;4924991;29;19935;-72
2022/11/03 06:56:56;;;;;;;;;;;11.20;99.90;;;;;;4925547;29;19930;-71
2022/11/03 06:59:23;;;;;;;;;;;11.10;99.90;;;;;;4921047;29;19983;-71
2022/11/03 07:01:53;;;;;;;;;;;11.20;99.90;;;;;;4928782;29;19934;-72
2022/11/03 07:04:21;;;;;;;;;;;11.20;99.90;;;;;;4923541;29;19927;-71
2022/11/03 07:06:48;;;;;;;;;;;11.20;99.90;;;;;;4915643;29;19935;-71
2022/11/03 07:09:16;;;;;;;;;;;11.20;99.90;;;;;;4920257;29;20003;-70
2022/11/03 07:11:44;;;;;;;;;;;11.30;99.90;;;;;;4923585;29;19927;-70
2022/11/03 07:14:12;;;;;;;;;;;11.30;99.90;;;;;;4924103;29;19931;-70
2022/11/03 07:16:41;;;;;;;;;;;11.30;99.90;;;;;;4921431;29;20030;-70
2022/11/03 07:19:16;;;;;;;;;;;11.40;99.90;;;;;;4925090;29;19934;-69
2022/11/03 07:21:44;;;;;;;;;;;11.40;99.90;;;;;;4917587;29;19934;-71
2022/11/03 07:24:15;;;;;;;;;;;11.40;99.90;;;;;;4921811;29;19926;-71
2022/11/03 07:26:42;;;;;;;;;;;11.40;99.90;;;;;;4920588;29;20386;-70
2022/11/03 07:29:11;;;;;;;;;;;11.50;99.90;;;;;;4926734;29;19931;-70
2022/11/03 07:31:38;;;;;;;;;;;11.60;99.90;;;;;;4931158;29;20033;-69
2022/11/03 07:34:10;;;;;;;;;;;11.60;99.90;;;;;;4932917;29;19928;-70
2022/11/03 07:36:39;;;;;;;;;;;11.70;99.90;;;;;;4928756;29;19927;-69
2022/11/03 07:39:06;;;;;;;;;;;11.80;99.90;;;;;;4933127;29;20409;-70
2022/11/03 07:41:33;;;;;;;;;;;11.80;99.90;;;;;;4934135;29;19931;-70
2022/11/03 07:44:00;;;;;;;;;;;11.80;99.90;;;;;;4923745;29;19966;-69
2022/11/03 07:46:27;;;;;;;;;;;11.90;99.90;;;;;;4924849;29;19927;-69
2022/11/03 07:48:55;;;;;;;;;;;11.90;99.90;;;;;;4930813;29;19927;-70
2022/11/03 07:51:23;;;;;;;;;;;11.90;99.90;;;;;;4918659;29;19942;-70
2022/11/03 07:53:53;;;;;;;;;;;11.90;99.90;;;;;;4922268;29;19933;-70
2022/11/03 07:56:20;;;;;;;;;;;11.90;99.90;;;;;;4923786;29;20021;-70
2022/11/03 07:58:49;;;;;;;;;;;12.00;99.90;;;;;;4921083;29;19935;-70
2022/11/03 08:01:20;;;;;;;;;;;12.00;99.90;;;;;;4922416;29;19931;-71
2022/11/03 08:03:47;;;;;;;;;;;12.10;99.90;;;;;;4917159;29;19958;-71
2022/11/03 08:06:14;;;;;;;;;;;12.10;99.90;;;;;;4917247;29;19935;-70
2022/11/03 08:08:41;;;;;;;;;;;12.10;99.90;;;;;;4918084;29;19928;-70
2022/11/03 08:11:09;;;;;;;;;;;12.10;99.90;;;;;;4914148;29;19968;-70
2022/11/03 08:13:35;;;;;;;;;;;12.20;99.90;;;;;;4914856;29;20364;-70
2022/11/03 08:16:02;;;;;;;;;;;12.20;99.90;;;;;;4921307;29;19931;-71
2022/11/03 08:18:29;;;;;;;;;;;12.20;99.90;;;;;;4921343;29;20398;-71
2022/11/03 08:20:56;;;;;;;;;;;12.30;99.90;;;;;;4919871;29;19982;-71
2022/11/03 08:23:23;;;;;;;;;;;12.30;99.90;;;;;;4917951;29;19931;-70
2022/11/03 08:25:49;;;;;;;;;;;12.30;99.90;;;;;;4925894;29;19931;-70
2022/11/03 08:28:18;;;;;;;;;;;12.40;99.90;;;;;;4930940;29;20398;-70
2022/11/03 08:30:44;;;;;;;;;;;12.40;99.90;;;;;;4930016;29;19931;-70
2022/11/03 08:33:11;;;;;;;;;;;12.50;99.90;;;;;;4922220;29;19927;-71
2022/11/03 08:35:38;;;;;;;;;;;12.50;99.90;;;;;;4924555;29;20375;-70
2022/11/03 08:38:05;;;;;;;;;;;12.50;99.90;;;;;;4920936;29;19927;-70
2022/11/03 08:40:31;;;;;;;;;;;12.60;99.90;;;;;;4916029;29;19927;-70
2022/11/03 08:42:59;;;;;;;;;;;12.60;99.90;;;;;;4928433;29;19927;-70
2022/11/03 08:45:27;;;;;;;;;;;12.60;99.90;;;;;;4923332;29;19931;-70
2022/11/03 08:47:54;;;;;;;;;;;12.70;99.90;;;;;;4916190;29;19935;-69
2022/11/03 08:50:22;;;;;;;;;;;12.70;99.90;;;;;;4915653;29;19931;-70
2022/11/03 08:52:49;;;;;;;;;;;12.70;99.90;;;;;;4919445;29;19937;-69
2022/11/03 08:55:16;;;;;;;;;;;12.80;99.90;;;;;;4907438;29;19927;-70
2022/11/03 08:57:43;;;;;;;;;;;12.80;99.90;;;;;;4920770;29;19934;-70
2022/11/03 09:00:10;;;;;;;;;;;12.90;99.90;;;;;;4917990;29;19927;-70
2022/11/03 09:02:39;;;;;;;;;;;12.90;99.90;;;;;;4925363;29;19927;-70
2022/11/03 09:05:06;;;;;;;;;;;13.00;99.90;;;;;;4921506;29;20342;-71
2022/11/03 09:07:33;;;;;;;;;;;13.00;99.90;;;;;;4921651;29;19938;-71
2022/11/03 09:10:00;;;;;;;;;;;13.10;99.90;;;;;;4918479;29;19927;-71
2022/11/03 09:12:26;;;;;;;;;;;13.10;99.90;;;;;;4916336;29;19974;-71
2022/11/03 09:14:53;;;;;;;;;;;13.10;99.90;;;;;;4919307;29;20275;-71
2022/11/03 09:17:20;;;;;;;;;;;13.20;99.90;;;;;;4910732;29;19999;-71
2022/11/03 09:19:48;;;;;;;;;;;13.20;99.90;;;;;;4922820;29;19934;-71
2022/11/03 09:22:15;;;;;;;;;;;13.30;99.90;;;;;;4920326;29;19935;-71
2022/11/03 09:24:42;;;;;;;;;;;13.30;99.90;;;;;;4917141;29;19931;-70
2022/11/03 09:27:09;;;;;;;;;;;13.20;99.90;;;;;;4919743;29;19927;-70
2022/11/03 09:29:36;;;;;;;;;;;13.20;99.90;;;;;;4928293;29;19931;-71
2022/11/03 09:32:03;;;;;;;;;;;13.20;99.90;;;;;;4927287;29;19927;-71
2022/11/03 09:34:30;;;;;;;;;;;13.10;99.90;;;;;;4927807;29;20307;-71
2022/11/03 09:36:58;;;;;;;;;;;13.00;99.90;;;;;;4922541;29;19927;-70
2022/11/03 09:39:24;;;;;;;;;;;13.00;99.90;;;;;;4922521;29;19934;-70
2022/11/03 09:41:52;;;;;;;;;;;13.00;99.90;;;;;;4921763;29;19938;-71
2022/11/03 09:44:19;;;;;;;;;;;13.00;99.90;;;;;;4922490;29;19927;-70
2022/11/03 09:46:46;;;;;;;;;;;13.00;99.90;;;;;;4919343;29;19927;-70
2022/11/03 09:49:14;;;;;;;;;;;13.10;99.90;;;;;;4910657;29;20147;-70
2022/11/03 09:51:41;;;;;;;;;;;13.10;99.90;;;;;;4916719;29;19934;-70
2022/11/03 09:54:13;;;;;;;;;;;13.10;99.90;;;;;;4923236;29;19927;-70
2022/11/03 09:56:40;;;;;;;;;;;13.10;99.90;;;;;;4921802;29;20283;-70
2022/11/03 09:59:14;;;;;;;;;;;13.20;99.90;;;;;;4918935;29;20343;-71
2022/11/03 10:01:42;;;;;;;;;;;13.20;99.90;;;;;;4923016;29;19926;-71
2022/11/03 10:04:10;;;;;;;;;;;13.20;99.90;;;;;;4924183;29;19927;-71
2022/11/03 10:06:37;;;;;;;;;;;13.20;99.90;;;;;;4916786;29;20322;-71
2022/11/03 10:09:04;;;;;;;;;;;13.30;99.90;;;;;;4916003;29;19930;-72
2022/11/03 10:11:32;;;;;;;;;;;13.30;99.90;;;;;;4915889;29;19927;-71
2022/11/03 10:13:59;;;;;;;;;;;13.20;99.90;;;;;;4912002;29;19927;-71
2022/11/03 10:16:26;;;;;;;;;;;13.20;99.90;;;;;;4905734;29;20009;-71
2022/11/03 10:18:54;;;;;;;;;;;13.20;99.90;;;;;;4939838;29;19978;-71
2022/11/03 10:21:23;;;;;;;;;;;13.20;99.90;;;;;;4910182;29;19931;-72
2022/11/03 10:23:50;;;;;;;;;;;13.20;99.90;;;;;;4909357;29;19926;-72
2022/11/03 10:26:18;;;;;;;;;;;13.20;99.90;;;;;;4917207;29;19931;-71
2022/11/03 10:28:59;;;;;;;;;;;13.30;99.90;;;;;;4928624;29;20378;-71
2022/11/03 10:31:31;;;;;;;;;;;13.30;99.90;;;;;;4927660;29;20025;-71
2022/11/03 10:33:58;;;;;;;;;;;13.30;99.90;;;;;;4915099;29;20013;-71
2022/11/03 10:36:26;;;;;;;;;;;13.40;99.90;;;;;;4925735;29;19928;-71
2022/11/03 10:38:53;;;;;;;;;;;13.40;99.90;;;;;;4937774;28;19927;-70
2022/11/03 10:41:20;;;;;;;;;;;13.40;99.90;;;;;;4929194;29;19927;-71
2022/11/03 10:44:01;;;;;;;;;;;13.40;99.90;;;;;;4923975;29;19935;-71
2022/11/03 10:46:28;;;;;;;;;;;13.50;99.90;;;;;;4922004;29;19927;-71
2022/11/03 10:49:02;;;;;;;;;;;13.50;99.90;;;;;;4925561;29;19991;-71
2022/11/03 10:51:29;;;;;;;;;;;13.50;99.90;;;;;;4919932;29;19927;-71
2022/11/03 10:53:56;;;;;;;;;;;13.60;99.90;;;;;;4917027;29;19927;-70
2022/11/03 10:56:23;;;;;;;;;;;13.60;99.90;;;;;;4920458;29;19927;-71
2022/11/03 10:58:50;;;;;;;;;;;13.60;99.90;;;;;;4917560;29;19934;-69
2022/11/03 11:01:18;;;;;;;;;;;13.70;99.90;;;;;;4919278;29;19970;-71
2022/11/03 11:03:45;;;;;;;;;;;13.70;99.90;;;;;;4917019;29;19946;-73
2022/11/03 11:06:22;;;;;;;;;;;13.80;99.90;;;;;;4909426;29;19934;-71
2022/11/03 11:08:52;;;;;;;;;;;13.80;99.90;;;;;;4915889;29;20370;-69
2022/11/03 11:11:21;;;;;;;;;;;13.80;99.90;;;;;;4908915;29;19927;-72
2022/11/03 11:14:15;;;;;;;;;;;13.90;99.90;;;;;;4916202;29;19934;-72
2022/11/03 11:16:50;;;;;;;;;;;13.90;99.90;;;;;;4921338;29;19927;-71
2022/11/03 11:19:17;;;;;;;;;;;13.90;99.90;;;;;;4926644;29;19931;-71
2022/11/03 11:21:56;;;;;;;;;;;13.90;99.90;;;;;;4922995;29;19927;-71
2022/11/03 11:24:42;;;;;;;;;;;13.90;99.90;;;;;;4914331;29;19931;-70
2022/11/03 11:27:24;;;;;;;;;;;13.80;99.90;;;;;;4918232;29;19927;-71
2022/11/03 11:29:51;;;;;;;;;;;13.80;99.90;;;;;;4914697;29;19926;-71
2022/11/03 11:32:51;;;;;;;;;;;13.80;99.90;;;;;;4923020;29;19926;-70
2022/11/03 11:35:40;;;;;;;;;;;13.80;99.90;;;;;;4913081;29;19935;-70
2022/11/03 11:38:25;;;;;;;;;;;13.90;99.90;;;;;;4926559;29;19927;-71
2022/11/03 11:40:52;;;;;;;;;;;13.90;99.90;;;;;;4927128;29;20397;-70
2022/11/03 11:43:26;;;;;;;;;;;13.90;99.90;;;;;;4929871;29;20401;-71
2022/11/03 11:46:17;;;;;;;;;;;13.90;99.90;;;;;;4928634;29;19926;-71
2022/11/03 11:48:43;;;;;;;;;;;14.00;99.90;;;;;;4922292;29;19949;-71
2022/11/03 11:51:12;;;;;;;;;;;14.00;99.90;;;;;;4919305;29;19951;-71
2022/11/03 11:53:40;;;;;;;;;;;14.00;99.90;;;;;;4924717;29;19926;-71
2022/11/03 11:56:10;;;;;;;;;;;14.10;99.90;;;;;;4919164;29;19932;-71
2022/11/03 11:58:38;;;;;;;;;;;14.10;99.90;;;;;;4930855;29;19974;-71
2022/11/03 12:01:07;;;;;;;;;;;14.20;99.90;;;;;;4922528;29;19931;-71
2022/11/03 12:03:37;;;;;;;;;;;14.30;99.90;;;;;;4927028;29;20056;-71
2022/11/03 12:06:04;;;;;;;;;;;14.30;99.90;;;;;;4923987;29;19927;-70
2022/11/03 12:08:33;;;;;;;;;;;14.30;99.90;;;;;;4928135;29;19927;-71
2022/11/03 12:11:01;;;;;;;;;;;14.30;99.90;;;;;;4921380;29;19927;-70
2022/11/03 12:13:35;;;;;;;;;;;14.30;99.90;;;;;;4917859;29;20418;-71
2022/11/03 12:16:02;;;;;;;;;;;14.30;99.90;;;;;;4913399;29;19938;-71
2022/11/03 12:18:33;;;;;;;;;;;14.20;99.90;;;;;;4923853;29;20001;-71
2022/11/03 12:21:00;;;;;;;;;;;14.20;99.90;;;;;;4916298;29;19958;-70
2022/11/03 12:23:48;;;;;;;;;;;14.20;99.90;;;;;;4917541;29;19931;-71
2022/11/03 12:26:17;;;;;;;;;;;14.20;99.90;;;;;;4911092;29;19931;-71
2022/11/03 12:28:44;;;;;;;;;;;14.10;99.90;;;;;;4925073;29;20287;-71
2022/11/03 12:31:11;;;;;;;;;;;14.10;99.90;;;;;;4930094;29;19930;-70
2022/11/03 12:33:38;;;;;;;;;;;14.00;99.90;;;;;;4918886;29;20030;-70
2022/11/03 12:36:05;;;;;;;;;;;14.00;99.90;;;;;;4922923;29;19927;-70
2022/11/03 12:38:32;;;;;;;;;;;14.00;99.90;;;;;;4923295;29;19927;-71
2022/11/03 12:41:19;;;;;;;;;;;14.00;99.90;;;;;;4932203;29;19927;-70
2022/11/03 12:43:49;;;;;;;;;;;14.00;99.90;;;;;;4917645;29;19938;-70
2022/11/03 12:46:16;;;;;;;;;;;14.00;99.90;;;;;;4927782;29;19978;-70
2022/11/03 12:48:43;;;;;;;;;;;14.00;99.90;;;;;;4916936;29;19935;-71
2022/11/03 12:51:11;;;;;;;;;;;14.00;99.90;;;;;;4927176;29;19934;-71
2022/11/03 12:53:38;;;;;;;;;;;14.10;99.90;;;;;;4919246;29;20018;-70
2022/11/03 12:56:05;;;;;;;;;;;14.10;99.90;;;;;;4929325;29;19938;-70
2022/11/03 12:58:32;;;;;;;;;;;14.10;99.90;;;;;;4930092;29;19927;-71
2022/11/03 13:01:00;;;;;;;;;;;14.10;99.90;;;;;;4921489;29;19927;-71
2022/11/03 13:03:27;;;;;;;;;;;14.20;99.90;;;;;;4920041;29;19927;-71
2022/11/03 13:05:54;;;;;;;;;;;14.20;99.90;;;;;;4917790;29;19931;-72
2022/11/03 13:08:21;;;;;;;;;;;14.30;99.90;;;;;;4910164;29;19927;-69
2022/11/03 13:10:48;;;;;;;;;;;14.30;99.90;;;;;;4921207;29;19927;-71
2022/11/03 13:13:15;;;;;;;;;;;14.30;99.90;;;;;;4920563;29;19927;-71
2022/11/03 13:15:41;;;;;;;;;;;14.30;99.90;;;;;;4925444;29;20307;-71
2022/11/03 13:18:10;;;;;;;;;;;14.40;99.90;;;;;;4924627;29;19927;-72
2022/11/03 13:20:37;;;;;;;;;;;14.40;99.90;;;;;;4920555;29;19930;-70
2022/11/03 13:23:04;;;;;;;;;;;14.40;99.90;;;;;;4907058;29;20306;-70
2022/11/03 13:25:31;;;;;;;;;;;14.30;99.90;;;;;;4918291;29;19927;-72
2022/11/03 13:27:58;;;;;;;;;;;14.30;99.90;;;;;;4913755;29;19927;-71
2022/11/03 13:30:26;;;;;;;;;;;14.30;99.90;;;;;;4928173;29;19927;-71
2022/11/03 13:32:53;;;;;;;;;;;14.30;99.90;;;;;;4920108;29;19927;-69
2022/11/03 13:35:21;;;;;;;;;;;14.40;99.90;;;;;;4930079;29;20484;-68
2022/11/03 13:37:48;;;;;;;;;;;14.30;99.90;;;;;;4918530;29;19978;-69
2022/11/03 13:40:15;;;;;;;;;;;14.30;99.90;;;;;;4928243;29;19926;-69
2022/11/03 13:42:43;;;;;;;;;;;14.30;99.90;;;;;;4913671;29;19978;-72
2022/11/03 13:45:10;;;;;;;;;;;14.20;99.90;;;;;;4910785;29;19957;-71
2022/11/03 13:47:37;;;;;;;;;;;14.20;99.90;;;;;;4915487;29;19931;-71
2022/11/03 13:50:04;;;;;;;;;;;14.20;99.90;;;;;;4912672;29;19966;-72
2022/11/03 13:52:32;;;;;;;;;;;14.20;99.90;;;;;;4917475;29;19934;-71
2022/11/03 13:54:59;;;;;;;;;;;14.10;99.90;;;;;;4924132;29;19927;-72
2022/11/03 13:57:27;;;;;;;;;;;14.10;99.90;;;;;;4909221;29;20391;-71
2022/11/03 13:59:53;;;;;;;;;;;14.10;99.90;;;;;;4916074;29;19930;-71
2022/11/03 14:02:20;;;;;;;;;;;14.00;99.90;;;;;;4915209;29;20333;-72
2022/11/03 14:04:47;;;;;;;;;;;14.00;99.90;;;;;;4918728;29;20366;-71
2022/11/03 14:07:14;;;;;;;;;;;14.00;99.90;;;;;;4918851;29;19927;-72
2022/11/03 14:09:42;;;;;;;;;;;14.00;99.90;;;;;;4915400;29;19931;-71
2022/11/03 14:14:53;;;;;;;;;;;13.90;99.90;;;;;;4919353;29;19923;-71
2022/11/03 14:17:19;;;;;;;;;;;13.80;99.90;;;;;;4930024;29;19962;-71
2022/11/03 14:19:46;;;;;;;;;;;13.80;99.90;;;;;;4919472;29;19939;-71
2022/11/03 14:22:13;;;;;;;;;;;13.70;99.90;;;;;;4919418;29;19927;-70
2022/11/03 14:24:40;;;;;;;;;;;13.70;99.90;;;;;;4909742;29;20057;-70
2022/11/03 14:27:08;;;;;;;;;;;13.70;99.90;;;;;;4915338;29;19935;-70
2022/11/03 14:29:35;;;;;;;;;;;13.60;99.90;;;;;;4915316;29;19927;-70
2022/11/03 14:32:02;;;;;;;;;;;13.60;99.90;;;;;;4936830;28;19942;-71
2022/11/03 14:34:29;;;;;;;;;;;13.50;99.90;;;;;;4919219;29;20027;-70
2022/11/03 14:36:56;;;;;;;;;;;13.50;99.90;;;;;;4916386;29;19927;-70
2022/11/03 14:39:23;;;;;;;;;;;13.50;99.90;;;;;;4917828;29;19962;-70
2022/11/03 14:42:05;;;;;;;;;;;13.60;99.90;;;;;;4921405;29;20309;-70
2022/11/03 14:44:34;;;;;;;;;;;13.60;99.90;;;;;;4924711;29;20394;-70
2022/11/03 14:47:01;;;;;;;;;;;13.70;99.90;;;;;;4908813;29;19976;-70
2022/11/03 14:49:28;;;;;;;;;;;13.70;99.90;;;;;;4919119;29;20003;-71
2022/11/03 14:51:56;;;;;;;;;;;13.70;99.90;;;;;;4913237;29;20002;-71
2022/11/03 14:54:23;;;;;;;;;;;13.60;99.90;;;;;;4932081;29;20494;-70
2022/11/03 14:56:50;;;;;;;;;;;13.60;99.90;;;;;;4926831;29;19927;-70
2022/11/03 14:59:16;;;;;;;;;;;13.50;99.90;;;;;;4915818;29;20022;-71
2022/11/03 15:01:45;;;;;;;;;;;13.50;99.90;;;;;;4915903;29;19934;-70
2022/11/03 15:04:12;;;;;;;;;;;13.40;99.90;;;;;;4928708;29;19990;-71
2022/11/03 15:06:39;;;;;;;;;;;13.40;99.90;;;;;;4918194;29;20267;-70
2022/11/03 15:09:05;;;;;;;;;;;13.40;99.90;;;;;;4926346;29;19934;-71
2022/11/03 15:11:32;;;;;;;;;;;13.40;99.90;;;;;;4910456;29;19928;-71
2022/11/03 15:13:59;;;;;;;;;;;13.40;99.90;;;;;;4918101;29;19927;-71
2022/11/03 15:16:26;;;;;;;;;;;13.40;99.90;;;;;;4923289;29;19927;-72
2022/11/03 15:18:54;;;;;;;;;;;13.40;99.90;;;;;;4918036;29;19926;-71
2022/11/03 15:21:21;;;;;;;;;;;13.40;99.90;;;;;;4927026;29;19934;-71
2022/11/03 15:23:48;;;;;;;;;;;13.40;99.90;;;;;;4921612;29;19994;-71
2022/11/03 15:26:15;;;;;;;;;;;13.40;99.90;;;;;;4927047;29;19927;-72
2022/11/03 15:28:42;;;;;;;;;;;13.50;99.90;;;;;;4913333;29;19927;-71
2022/11/03 15:31:09;;;;;;;;;;;13.50;99.90;;;;;;4912842;29;20002;-75
2022/11/03 15:33:35;;;;;;;;;;;13.40;99.90;;;;;;4917999;29;19938;-71
2022/11/03 15:36:05;;;;;;;;;;;13.50;99.90;;;;;;4910657;29;19927;-70
2022/11/03 15:38:32;;;;;;;;;;;13.40;99.90;;;;;;4918342;29;19927;-72
2022/11/03 15:43:40;;;;;;;;;;;13.40;99.90;;;;;;4925364;29;19923;-71
2022/11/03 15:46:07;;;;;;;;;;;13.40;99.90;;;;;;4916604;29;19931;-72
2022/11/03 15:48:33;;;;;;;;;;;13.40;99.90;;;;;;4918876;29;19971;-72
2022/11/03 15:51:00;;;;;;;;;;;13.30;99.90;;;;;;4909349;29;20358;-72
2022/11/03 15:53:28;;;;;;;;;;;13.30;99.90;;;;;;4911704;29;19928;-71
2022/11/03 15:55:55;;;;;;;;;;;13.30;99.90;;;;;;4918177;29;19942;-72
2022/11/03 15:58:22;;;;;;;;;;;13.30;99.90;;;;;;4918080;29;19932;-73
2022/11/03 16:00:49;;;;;;;;;;;13.30;99.90;;;;;;4918590;29;19934;-73
2022/11/03 16:03:16;;;;;;;;;;;13.30;99.90;;;;;;4920445;29;19933;-71
2022/11/03 16:05:42;;;;;;;;;;;13.30;99.90;;;;;;4919333;29;19935;-71
2022/11/03 16:08:09;;;;;;;;;;;13.30;99.90;;;;;;4912829;29;20379;-71
2022/11/03 16:10:37;;;;;;;;;;;13.30;99.90;;;;;;4919601;29;19927;-69
2022/11/03 16:13:04;;;;;;;;;;;13.30;99.90;;;;;;4928481;29;20382;-69
2022/11/03 16:15:31;;;;;;;;;;;13.30;99.90;;;;;;4925206;29;20412;-77
2022/11/03 16:18:01;;;;;;;;;;;13.30;99.90;;;;;;4924010;29;19927;-72
2022/11/03 16:20:28;;;;;;;;;;;13.30;99.90;;;;;;4928957;29;19935;-71
2022/11/03 16:22:55;;;;;;;;;;;13.30;99.90;;;;;;4918522;29;19942;-71
2022/11/03 16:25:22;;;;;;;;;;;13.30;99.90;;;;;;4927780;29;19931;-72
2022/11/03 16:27:50;;;;;;;;;;;13.40;99.90;;;;;;4918476;29;19927;-73
2022/11/03 16:30:17;;;;;;;;;;;13.40;99.90;;;;;;4917494;29;19927;-71
2022/11/03 16:32:44;;;;;;;;;;;13.30;99.90;;;;;;4926838;29;19927;-71
2022/11/03 16:35:10;;;;;;;;;;;13.30;99.90;;;;;;4927692;29;19931;-71
2022/11/03 16:37:37;;;;;;;;;;;13.30;99.90;;;;;;4928281;29;19931;-72
2022/11/03 16:40:04;;;;;;;;;;;13.30;99.90;;;;;;4927123;29;19935;-71
2022/11/03 16:42:37;;;;;;;;;;;13.30;99.90;;;;;;4933563;29;19934;-71
2022/11/03 16:45:07;;;;;;;;;;;13.20;99.90;;;;;;4930017;29;19971;-72
2022/11/03 16:47:34;;;;;;;;;;;13.20;99.90;;;;;;4929635;29;19927;-72
2022/11/03 16:50:01;;;;;;;;;;;13.20;99.90;;;;;;4923205;29;19935;-72
2022/11/03 16:52:28;;;;;;;;;;;13.10;99.90;;;;;;4934062;29;19934;-68
2022/11/03 16:54:55;;;;;;;;;;;13.10;99.90;;;;;;4929274;29;19939;-68
2022/11/03 16:57:22;;;;;;;;;;;13.10;99.90;;;;;;4924453;29;19927;-68
2022/11/03 16:59:48;;;;;;;;;;;13.10;99.90;;;;;;4917462;29;19931;-68
2022/11/03 17:02:17;;;;;;;;;;;13.10;99.90;;;;;;4916546;29;19927;-69
2022/11/03 17:04:43;;;;;;;;;;;13.10;99.90;;;;;;4926481;29;19927;-67
2022/11/03 17:07:10;;;;;;;;;;;13.10;99.90;;;;;;4920705;29;19931;-69
2022/11/03 17:09:37;;;;;;;;;;;13.00;99.90;;;;;;4921832;29;19927;-69
2022/11/03 17:12:04;;;;;;;;;;;13.00;99.90;;;;;;4927454;29;19991;-70
2022/11/03 17:14:31;;;;;;;;;;;13.00;99.90;;;;;;4931452;29;19934;-68
2022/11/03 17:16:57;;;;;;;;;;;13.00;99.90;;;;;;4924390;29;19927;-68
2022/11/03 17:19:26;;;;;;;;;;;13.00;99.90;;;;;;4921986;29;19989;-69
2022/11/03 17:21:52;;;;;;;;;;;13.00;99.90;;;;;;4922593;29;19927;-72
2022/11/03 17:24:19;;;;;;;;;;;13.00;99.90;;;;;;4933283;29;19931;-71
2022/11/03 17:26:52;;;;;;;;;;;13.00;99.90;;;;;;4925257;29;19927;-71
2022/11/03 17:29:20;;;;;;;;;;;13.00;99.90;;;;;;4928565;29;19955;-69
2022/11/03 17:31:47;;;;;;;;;;;13.00;99.90;;;;;;4924567;29;19931;-69
2022/11/03 17:34:13;;;;;;;;;;;12.90;99.90;;;;;;4920732;29;19939;-71
2022/11/03 17:36:42;;;;;;;;;;;12.90;99.90;;;;;;4916934;29;19927;-71
2022/11/03 17:39:09;;;;;;;;;;;12.80;99.90;;;;;;4911169;29;19943;-69
2022/11/03 17:41:36;;;;;;;;;;;12.80;99.90;;;;;;4921660;29;19934;-71
2022/11/03 17:44:03;;;;;;;;;;;12.80;99.90;;;;;;4926654;29;19927;-70
2022/11/03 17:46:29;;;;;;;;;;;12.70;99.90;;;;;;4927537;29;19931;-70
2022/11/03 17:48:56;;;;;;;;;;;12.70;99.90;;;;;;4918650;29;19927;-70
2022/11/03 17:51:23;;;;;;;;;;;12.70;99.90;;;;;;4922367;29;19927;-72
2022/11/03 17:53:51;;;;;;;;;;;12.60;99.90;;;;;;4923180;29;20428;-71
2022/11/03 17:56:18;;;;;;;;;;;12.60;99.90;;;;;;4916254;29;20356;-72
2022/11/03 17:58:45;;;;;;;;;;;12.50;99.90;;;;;;4920527;29;19991;-71
2022/11/03 18:01:12;;;;;;;;;;;12.50;99.90;;;;;;4920486;29;19934;-71
2022/11/03 18:03:40;;;;;;;;;;;12.50;99.90;;;;;;4914994;29;19969;-72
2022/11/03 18:06:12;;;;;;;;;;;12.50;99.90;;;;;;4919949;29;19927;-71
2022/11/03 18:08:39;;;;;;;;;;;12.40;99.90;;;;;;4916565;29;19934;-71
2022/11/03 18:13:14;;;;;;;;;;;12.40;99.90;;;;;;4927845;29;20367;-70
2022/11/03 18:13:56;;;;;;;;;;;12.40;99.90;;;;;;4907367;29;20220;-71
2022/11/03 18:16:23;;;;;;;;;;;12.40;99.90;;;;;;4914396;29;20022;-71
2022/11/03 18:18:50;;;;;;;;;;;12.40;99.90;;;;;;4923356;29;19931;-70
2022/11/03 18:21:17;;;;;;;;;;;12.40;99.90;;;;;;4923931;29;19927;-72
2022/11/03 18:23:45;;;;;;;;;;;12.40;99.90;;;;;;4922111;29;19932;-70
2022/11/03 18:26:16;;;;;;;;;;;12.50;99.90;;;;;;4922944;29;19979;-72
2022/11/03 18:28:42;;;;;;;;;;;12.50;99.90;;;;;;4917508;29;19934;-72
2022/11/03 18:31:13;;;;;;;;;;;12.60;99.90;;;;;;4925621;29;19942;-73
2022/11/03 18:33:40;;;;;;;;;;;12.60;99.90;;;;;;4926549;29;19930;-72
2022/11/03 18:36:07;;;;;;;;;;;12.60;99.90;;;;;;4925611;29;19935;-71
2022/11/03 18:38:35;;;;;;;;;;;12.60;99.90;;;;;;4933982;29;19933;-72
2022/11/03 18:41:34;;;;;;;;;;;12.70;99.90;;;;;;4929341;29;19962;-71